createdAt,value
2017-05-29T00:01:07.245Z,53.60
2017-05-29T00:11:14.234Z,53.30
2017-05-29T00:21:07.477Z,54.10
2017-05-29T00:23:34.378Z,53.80
2017-05-29T00:26:01.801Z,54.90
2017-05-29T00:30:57.419Z,54.10
2017-05-29T00:33:24.659Z,54.40
2017-05-29T00:35:51.943Z,54.60
2017-05-29T00:38:19.217Z,54.60
2017-05-29T00:40:47.831Z,54.30
2017-05-29T00:43:15.093Z,55.00
2017-05-29T00:45:41.953Z,54.30
2017-05-29T00:50:39.257Z,54.30
2017-05-29T00:53:06.129Z,54.20
2017-05-29T00:55:33.372Z,54.40
2017-05-29T01:02:57.103Z,55.20
2017-05-29T01:05:24.363Z,56.00
2017-05-29T01:07:51.647Z,56.00
2017-05-29T01:10:18.900Z,56.00
2017-05-29T01:12:45.839Z,55.40
2017-05-29T01:15:12.959Z,56.30
2017-05-29T01:22:37.330Z,55.90
2017-05-29T01:25:04.614Z,56.20
2017-05-29T01:27:32.310Z,55.60
2017-05-29T01:32:27.729Z,56.90
2017-05-29T01:34:55.397Z,56.40
2017-05-29T01:37:22.670Z,57.20
2017-05-29T01:39:49.902Z,57.30
2017-05-29T01:42:17.170Z,57.20
2017-05-29T01:44:45.206Z,56.30
2017-05-29T01:52:09.050Z,57.30
2017-05-29T01:54:36.290Z,57.30
2017-05-29T01:57:03.566Z,57.50
2017-05-29T02:01:59.168Z,57.60
2017-05-29T02:04:26.410Z,56.50
2017-05-29T02:06:53.666Z,57.20
2017-05-29T02:09:20.933Z,56.80
2017-05-29T02:11:48.322Z,56.80
2017-05-29T02:14:15.621Z,57.80
2017-05-29T02:16:42.889Z,57.50
2017-05-29T02:21:38.032Z,56.90
2017-05-29T02:24:05.626Z,57.80
2017-05-29T02:26:33.387Z,57.20
2017-05-29T02:33:57.079Z,58.20
2017-05-29T02:36:23.629Z,57.70
2017-05-29T02:38:51.054Z,58.40
2017-05-29T02:41:18.230Z,58.00
2017-05-29T02:43:45.497Z,57.80
2017-05-29T02:46:13.162Z,57.40
2017-05-29T02:53:36.917Z,58.40
2017-05-29T02:56:04.187Z,57.70
2017-05-29T03:03:28.389Z,57.50
2017-05-29T03:05:55.537Z,58.10
2017-05-29T03:08:22.821Z,58.70
2017-05-29T03:10:50.146Z,57.90
2017-05-29T03:13:17.812Z,57.70
2017-05-29T03:15:44.976Z,58.30
2017-05-29T03:18:12.282Z,58.40
2017-05-29T03:25:35.478Z,58.40
2017-05-29T03:28:03.073Z,58.10
2017-05-29T03:32:58.288Z,57.50
2017-05-29T03:35:26.257Z,57.50
2017-05-29T03:37:53.890Z,57.30
2017-05-29T03:40:21.444Z,58.10
2017-05-29T03:42:48.380Z,58.30
2017-05-29T03:45:15.547Z,58.00
2017-05-29T03:47:42.422Z,58.10
2017-05-29T03:55:06.381Z,58.10
2017-05-29T03:57:33.963Z,57.70
2017-05-29T04:02:30.514Z,57.70
2017-05-29T04:04:57.394Z,57.70
2017-05-29T04:07:24.301Z,57.70
2017-05-29T04:09:51.766Z,57.60
2017-05-29T04:12:19.021Z,58.30
2017-05-29T04:14:46.342Z,58.50
2017-05-29T04:22:10.054Z,57.70
2017-05-29T04:24:36.935Z,57.50
2017-05-29T04:27:04.186Z,58.30
2017-05-29T04:29:31.471Z,58.10
2017-05-29T04:34:26.669Z,57.70
2017-05-29T04:36:53.962Z,57.70
2017-05-29T04:39:21.250Z,56.80
2017-05-29T04:41:48.517Z,56.40
2017-05-29T04:44:15.698Z,56.90
2017-05-29T04:46:42.997Z,56.20
2017-05-29T04:49:10.642Z,56.00
2017-05-29T04:54:06.838Z,55.60
2017-05-29T04:56:33.825Z,54.40
2017-05-29T04:59:01.039Z,53.30
2017-05-29T05:03:56.600Z,49.00
2017-05-29T05:06:23.894Z,46.40
2017-05-29T05:08:51.184Z,46.10
2017-05-29T05:11:18.477Z,45.30
2017-05-29T05:13:45.834Z,43.30
2017-05-29T05:16:13.474Z,41.10
2017-05-29T05:18:40.739Z,40.80
2017-05-29T05:23:37.082Z,38.00
2017-05-29T05:26:04.440Z,37.50
2017-05-29T05:28:31.449Z,35.20
2017-05-29T05:30:58.494Z,33.60
2017-05-29T05:33:26.517Z,31.10
2017-05-29T05:35:53.784Z,30.60
2017-05-29T05:38:21.353Z,29.50
2017-05-29T05:40:48.683Z,29.30
2017-05-29T05:43:15.910Z,31.40
2017-05-29T05:48:11.901Z,31.70
2017-05-29T05:50:38.946Z,35.40
2017-05-29T05:55:34.094Z,36.60
2017-05-29T06:00:29.960Z,39.70
2017-05-29T06:02:57.006Z,42.30
2017-05-29T06:05:24.022Z,42.90
2017-05-29T06:07:51.136Z,42.80
2017-05-29T06:10:18.902Z,43.10
2017-05-29T06:12:45.955Z,45.10
2017-05-29T06:20:09.445Z,46.20
2017-05-29T06:25:04.491Z,46.10
2017-05-29T06:27:31.154Z,46.90
2017-05-29T06:29:57.878Z,47.00
2017-05-29T06:32:25.301Z,47.20
2017-05-29T06:34:52.326Z,47.60
2017-05-29T06:37:19.735Z,47.20
2017-05-29T06:39:46.759Z,47.20
2017-05-29T06:42:13.802Z,46.80
2017-05-29T06:44:40.718Z,46.30
2017-05-29T06:47:08.390Z,47.70
2017-05-29T06:49:35.602Z,48.80
2017-05-29T06:52:02.843Z,48.20
2017-05-29T06:56:59.183Z,45.60
2017-05-29T06:59:26.203Z,47.00
2017-05-29T07:01:53.217Z,46.60
2017-05-29T07:04:20.213Z,47.30
2017-05-29T07:06:47.111Z,47.60
2017-05-29T07:09:14.515Z,46.20
2017-05-29T07:11:41.652Z,47.40
2017-05-29T07:16:36.935Z,47.20
2017-05-29T07:21:32.011Z,47.60
2017-05-29T07:23:58.759Z,45.90
2017-05-29T07:28:53.812Z,46.30
2017-05-29T07:31:21.162Z,46.90
2017-05-29T07:36:17.050Z,45.40
2017-05-29T07:38:45.100Z,46.10
2017-05-29T07:41:13.011Z,44.60
2017-05-29T07:46:08.106Z,45.40
2017-05-29T07:48:35.239Z,45.40
2017-05-29T07:53:31.095Z,42.60
2017-05-29T07:58:26.151Z,43.00
2017-05-29T08:00:54.273Z,44.90
2017-05-29T08:05:50.431Z,46.80
2017-05-29T08:10:45.502Z,43.70
2017-05-29T08:13:12.541Z,44.50
2017-05-29T08:15:39.691Z,43.70
2017-05-29T08:18:06.714Z,44.60
2017-05-29T08:20:33.383Z,41.70
2017-05-29T08:23:00.398Z,42.40
2017-05-29T08:25:27.922Z,40.50
2017-05-29T08:30:23.298Z,41.00
2017-05-29T08:32:50.378Z,40.70
2017-05-29T08:40:14.158Z,39.50
2017-05-29T08:42:42.581Z,40.20
2017-05-29T08:45:10.053Z,39.70
2017-05-29T08:47:37.315Z,40.00
2017-05-29T08:50:04.586Z,39.70
2017-05-29T08:52:32.343Z,41.10
2017-05-29T08:55:04.427Z,40.40
2017-05-29T08:57:31.715Z,37.90
2017-05-29T09:04:55.244Z,39.20
2017-05-29T09:07:22.179Z,38.20
2017-05-29T09:09:49.573Z,39.30
2017-05-29T09:12:22.713Z,37.50
2017-05-29T09:14:50.038Z,37.60
2017-05-29T09:17:17.306Z,37.90
2017-05-29T09:19:44.293Z,36.90
2017-05-29T09:22:11.492Z,37.50
2017-05-29T09:29:41.466Z,37.20
2017-05-29T09:32:09.581Z,36.00
2017-05-29T09:34:36.836Z,35.00
2017-05-29T09:37:05.957Z,34.40
2017-05-29T09:39:33.207Z,33.40
2017-05-29T09:42:00.094Z,32.80
2017-05-29T09:44:29.381Z,33.90
2017-05-29T09:46:56.262Z,32.80
2017-05-29T09:59:16.265Z,31.10
2017-05-29T10:01:43.602Z,31.60
2017-05-29T10:04:10.946Z,31.50
2017-05-29T10:06:40.874Z,30.70
2017-05-29T10:09:08.172Z,35.60
2017-05-29T10:11:35.094Z,33.00
2017-05-29T10:14:02.350Z,31.30
2017-05-29T10:16:29.627Z,29.70
2017-05-29T10:18:57.016Z,29.70
2017-05-29T10:26:26.565Z,29.10
2017-05-29T10:28:54.546Z,29.40
2017-05-29T10:31:21.833Z,28.90
2017-05-29T10:33:49.085Z,28.20
2017-05-29T10:38:45.122Z,30.20
2017-05-29T10:41:12.397Z,30.90
2017-05-29T10:43:39.266Z,27.50
2017-05-29T10:46:06.557Z,30.00
2017-05-29T10:48:34.158Z,25.30
2017-05-29T10:51:01.031Z,25.80
2017-05-29T10:55:56.638Z,26.90
2017-05-29T10:58:24.898Z,25.50
2017-05-29T11:00:52.203Z,28.80
2017-05-29T11:08:15.951Z,25.90
2017-05-29T11:10:43.368Z,23.90
2017-05-29T11:13:10.590Z,24.90
2017-05-29T11:15:37.922Z,21.20
2017-05-29T11:18:04.796Z,22.70
2017-05-29T11:20:32.032Z,21.80
2017-05-29T11:25:27.936Z,21.00
2017-05-29T11:27:55.106Z,21.70
2017-05-29T11:30:22.372Z,20.30
2017-05-29T11:35:17.892Z,24.90
2017-05-29T11:40:13.465Z,18.90
2017-05-29T11:42:40.715Z,19.10
2017-05-29T11:45:08.049Z,15.50
2017-05-29T11:47:35.343Z,17.10
2017-05-29T11:50:02.630Z,16.70
2017-05-29T11:54:58.951Z,15.90
2017-05-29T11:57:26.122Z,16.30
2017-05-29T11:59:53.400Z,19.90
2017-05-29T12:04:48.916Z,16.90
2017-05-29T12:09:44.642Z,21.50
2017-05-29T12:12:11.949Z,18.80
2017-05-29T12:14:39.314Z,16.30
2017-05-29T12:17:07.322Z,18.70
2017-05-29T12:19:34.315Z,18.10
2017-05-29T12:26:58.130Z,17.40
2017-05-29T12:31:53.998Z,16.70
2017-05-29T12:34:21.255Z,17.00
2017-05-29T12:41:45.570Z,17.70
2017-05-29T12:44:12.822Z,18.10
2017-05-29T12:46:40.112Z,18.20
2017-05-29T12:49:07.532Z,17.50
2017-05-29T12:51:35.966Z,16.70
2017-05-29T12:56:31.459Z,17.30
2017-05-29T12:58:58.323Z,16.90
2017-05-29T13:01:25.565Z,17.40
2017-05-29T13:03:53.198Z,17.80
2017-05-29T13:11:17.495Z,16.90
2017-05-29T13:13:45.571Z,16.50
2017-05-29T13:18:41.459Z,17.10
2017-05-29T13:21:08.918Z,18.60
2017-05-29T13:23:36.946Z,17.30
2017-05-29T13:26:04.202Z,18.50
2017-05-29T13:28:31.403Z,18.10
2017-05-29T13:30:58.667Z,18.00
2017-05-29T13:33:25.938Z,17.50
2017-05-29T13:40:49.766Z,17.60
2017-05-29T13:45:45.228Z,17.20
2017-05-29T13:48:13.589Z,18.40
2017-05-29T13:50:40.861Z,18.60
2017-05-29T13:53:08.127Z,18.40
2017-05-29T13:55:35.729Z,16.80
2017-05-29T13:58:03.110Z,16.40
2017-05-29T14:00:30.360Z,16.90
2017-05-29T14:02:57.625Z,17.70
2017-05-29T14:10:21.411Z,17.30
2017-05-29T14:17:44.761Z,15.40
2017-05-29T14:20:12.018Z,16.00
2017-05-29T14:22:39.310Z,16.10
2017-05-29T14:25:07.414Z,16.10
2017-05-29T14:27:34.337Z,17.20
2017-05-29T14:30:02.148Z,15.60
2017-05-29T14:32:30.253Z,16.10
2017-05-29T14:39:54.033Z,16.50
2017-05-29T14:47:17.866Z,15.80
2017-05-29T14:49:45.086Z,14.50
2017-05-29T14:52:12.360Z,15.70
2017-05-29T14:54:39.651Z,16.20
2017-05-29T14:57:07.750Z,15.50
2017-05-29T14:59:35.029Z,16.30
2017-05-29T15:02:01.904Z,14.40
2017-05-29T15:04:29.198Z,15.30
2017-05-29T15:07:04.179Z,15.70
2017-05-29T15:14:27.956Z,15.40
2017-05-29T15:16:55.926Z,15.70
2017-05-29T15:19:23.914Z,15.70
2017-05-29T15:21:51.198Z,16.20
2017-05-29T15:24:19.200Z,14.90
2017-05-29T15:26:46.487Z,14.90
2017-05-29T15:29:13.725Z,15.20
2017-05-29T15:31:41.009Z,15.50
2017-05-29T15:36:36.681Z,15.50
2017-05-29T15:44:00.886Z,15.30
2017-05-29T15:46:28.121Z,15.20
2017-05-29T15:48:55.749Z,14.70
2017-05-29T16:06:12.082Z,16.00
2017-05-29T16:16:03.737Z,16.80
2017-05-29T16:20:59.272Z,17.10
2017-05-29T16:23:26.521Z,17.50
2017-05-29T16:28:21.679Z,17.00
2017-05-29T16:38:19.999Z,17.90
2017-05-29T16:43:15.187Z,17.90
2017-05-29T16:45:42.217Z,17.40
2017-05-29T16:48:09.636Z,16.80
2017-05-29T16:53:04.672Z,18.00
2017-05-29T16:55:32.060Z,16.30
2017-05-29T17:10:19.133Z,15.70
2017-05-29T17:15:14.228Z,16.20
2017-05-29T17:17:41.255Z,16.30
2017-05-29T17:20:08.281Z,16.30
2017-05-29T17:22:34.950Z,16.20
2017-05-29T17:25:03.925Z,16.40
2017-05-29T17:27:30.641Z,16.80
2017-05-29T17:32:25.294Z,17.80
2017-05-29T17:42:17.281Z,18.00
2017-05-29T17:44:44.298Z,18.70
2017-05-29T17:47:11.321Z,19.40
2017-05-29T17:49:38.369Z,20.30
2017-05-29T17:52:06.020Z,20.30
2017-05-29T17:54:34.092Z,20.60
2017-05-29T17:57:01.688Z,21.50
2017-05-29T18:01:57.175Z,22.60
2017-05-29T18:04:24.428Z,22.50
2017-05-29T18:09:25.293Z,22.50
2017-05-29T18:11:52.510Z,22.90
2017-05-29T18:14:19.544Z,22.50
2017-05-29T18:16:47.310Z,22.70
2017-05-29T18:19:15.114Z,23.10
2017-05-29T18:21:41.761Z,23.20
2017-05-29T18:24:09.125Z,23.20
2017-05-29T18:31:32.786Z,24.70
2017-05-29T18:36:28.635Z,25.20
2017-05-29T18:38:56.029Z,25.00
2017-05-29T18:41:23.070Z,25.90
2017-05-29T18:43:50.125Z,26.40
2017-05-29T18:46:17.153Z,27.00
2017-05-29T18:48:43.822Z,26.20
2017-05-29T18:51:10.470Z,27.50
2017-05-29T18:53:38.214Z,25.40
2017-05-29T18:56:04.859Z,25.80
2017-05-29T19:08:24.278Z,26.40
2017-05-29T19:10:51.324Z,27.30
2017-05-29T19:13:18.358Z,27.80
2017-05-29T19:15:53.478Z,27.60
2017-05-29T19:18:20.502Z,28.10
2017-05-29T19:20:47.925Z,27.00
2017-05-29T19:28:16.562Z,28.30
2017-05-29T19:33:12.006Z,29.10
2017-05-29T19:35:39.049Z,29.20
2017-05-29T19:40:34.837Z,28.60
2017-05-29T19:43:02.354Z,29.60
2017-05-29T19:45:29.410Z,29.50
2017-05-29T19:47:56.443Z,29.70
2017-05-29T19:50:23.085Z,29.20
2017-05-29T19:52:50.106Z,29.60
2017-05-29T19:57:45.977Z,30.00
2017-05-29T20:00:12.643Z,30.40
2017-05-29T20:05:07.286Z,29.60
2017-05-29T20:07:34.698Z,31.40
2017-05-29T20:12:29.720Z,32.60
2017-05-29T20:22:25.645Z,33.70
2017-05-29T20:27:20.714Z,33.70
2017-05-29T20:37:11.898Z,31.60
2017-05-29T20:39:38.532Z,31.80
2017-05-29T20:42:05.533Z,32.20
2017-05-29T20:44:32.990Z,31.70
2017-05-29T20:47:00.821Z,32.10
2017-05-29T20:49:27.491Z,32.30
2017-05-29T20:51:54.576Z,33.10
2017-05-29T20:59:17.821Z,33.70
2017-05-29T21:04:12.861Z,33.80
2017-05-29T21:06:40.541Z,33.00
2017-05-29T21:09:07.903Z,33.40
2017-05-29T21:11:35.007Z,34.50
2017-05-29T21:14:08.978Z,33.70
2017-05-29T21:19:03.681Z,33.40
2017-05-29T21:21:31.301Z,35.50
2017-05-29T21:26:27.110Z,34.40
2017-05-29T21:31:22.882Z,35.50
2017-05-29T21:33:50.086Z,36.40
2017-05-29T21:36:17.491Z,35.60
2017-05-29T21:38:44.883Z,35.70
2017-05-29T21:41:11.901Z,36.60
2017-05-29T21:43:38.909Z,36.70
2017-05-29T21:46:05.947Z,37.70
2017-05-29T21:48:32.591Z,37.10
2017-05-29T21:50:59.612Z,37.90
2017-05-29T21:53:26.622Z,36.70
2017-05-29T21:58:21.661Z,38.70
2017-05-29T22:03:17.097Z,38.00
2017-05-29T22:05:44.117Z,38.40
2017-05-29T22:08:11.162Z,39.00
2017-05-29T22:10:38.158Z,38.40
2017-05-29T22:13:05.180Z,39.60
2017-05-29T22:15:32.218Z,38.30
2017-05-29T22:17:58.842Z,38.50
2017-05-29T22:20:25.870Z,39.30
2017-05-29T22:22:53.713Z,38.20
2017-05-29T22:25:20.756Z,38.50
2017-05-29T22:30:15.835Z,39.40
2017-05-29T22:37:38.510Z,39.00
2017-05-29T22:40:05.930Z,39.00
2017-05-29T22:42:32.953Z,39.90
2017-05-29T22:44:59.975Z,40.10
2017-05-29T22:47:27.028Z,40.10
2017-05-29T22:49:53.747Z,40.50
2017-05-29T22:52:20.814Z,41.30
2017-05-29T22:54:47.839Z,41.60
2017-05-29T22:57:14.550Z,41.10
2017-05-29T23:02:09.604Z,41.70
2017-05-29T23:09:32.614Z,42.40
2017-05-29T23:12:00.487Z,41.90
2017-05-29T23:14:28.386Z,42.80
2017-05-29T23:16:55.394Z,42.60
2017-05-29T23:21:51.135Z,41.90
2017-05-29T23:24:18.157Z,42.50
2017-05-29T23:26:45.167Z,42.80
2017-05-29T23:39:04.906Z,43.10
2017-05-29T23:41:32.290Z,42.70
2017-05-29T23:43:59.348Z,43.60
2017-05-29T23:48:55.199Z,43.50
2017-05-29T23:51:23.610Z,43.50
2017-05-29T23:53:50.627Z,44.20
